sensor_id;sensor_type;location;lat;lon;timestamp;pressure;altitude;pressure_sealevel;temperature;humidity
74893;BME280;63446;56.272;43.922;2022-09-13T00:00:42;101197.72;;;9.10;71.81
74893;BME280;63446;56.272;43.922;2022-09-13T00:03:09;101201.66;;;9.07;71.89
74893;BME280;63446;56.272;43.922;2022-09-13T00:05:36;101199.25;;;9.05;71.93
74893;BME280;63446;56.272;43.922;2022-09-13T00:08:04;101197.88;;;9.03;71.97
74893;BME280;63446;56.272;43.922;2022-09-13T00:10:30;101203.38;;;9.01;72.10
74893;BME280;63446;56.272;43.922;2022-09-13T00:12:57;101202.25;;;8.97;72.06
74893;BME280;63446;56.272;43.922;2022-09-13T00:15:23;101197.78;;;8.98;72.16
74893;BME280;63446;56.272;43.922;2022-09-13T00:17:49;101204.81;;;8.92;72.17
74893;BME280;63446;56.272;43.922;2022-09-13T00:20:15;101201.06;;;8.88;72.26
74893;BME280;63446;56.272;43.922;2022-09-13T00:22:42;101199.22;;;8.89;72.44
74893;BME280;63446;56.272;43.922;2022-09-13T00:25:08;101194.16;;;8.87;72.33
74893;BME280;63446;56.272;43.922;2022-09-13T00:27:34;101176.91;;;8.79;72.34
74893;BME280;63446;56.272;43.922;2022-09-13T00:30:02;101190.41;;;8.83;72.42
74893;BME280;63446;56.272;43.922;2022-09-13T00:32:28;101192.16;;;8.77;72.65
74893;BME280;63446;56.272;43.922;2022-09-13T00:34:54;101190.56;;;8.76;72.68
74893;BME280;63446;56.272;43.922;2022-09-13T00:37:20;101197.09;;;8.74;72.74
74893;BME280;63446;56.272;43.922;2022-09-13T00:39:46;101201.00;;;8.71;72.81
74893;BME280;63446;56.272;43.922;2022-09-13T00:42:13;101200.44;;;8.69;72.82
74893;BME280;63446;56.272;43.922;2022-09-13T00:44:58;101199.06;;;8.67;72.87
74893;BME280;63446;56.272;43.922;2022-09-13T00:47:36;101202.97;;;8.64;72.90
74893;BME280;63446;56.272;43.922;2022-09-13T00:50:19;101200.81;;;8.61;73.04
74893;BME280;63446;56.272;43.922;2022-09-13T00:52:54;101195.22;;;8.58;72.97
74893;BME280;63446;56.272;43.922;2022-09-13T00:55:30;101189.63;;;8.54;73.10
74893;BME280;63446;56.272;43.922;2022-09-13T00:58:07;101197.19;;;8.50;73.09
74893;BME280;63446;56.272;43.922;2022-09-13T01:00:34;101196.59;;;8.48;73.03
74893;BME280;63446;56.272;43.922;2022-09-13T01:03:05;101204.19;;;8.45;73.16
74893;BME280;63446;56.272;43.922;2022-09-13T01:05:36;101206.25;;;8.43;73.28
74893;BME280;63446;56.272;43.922;2022-09-13T01:08:05;101206.72;;;8.40;73.25
74893;BME280;63446;56.272;43.922;2022-09-13T01:10:37;101210.81;;;8.36;73.37
74893;BME280;63446;56.272;43.922;2022-09-13T01:13:12;101202.34;;;8.33;73.56
74893;BME280;63446;56.272;43.922;2022-09-13T01:15:41;101198.56;;;8.29;73.49
74893;BME280;63446;56.272;43.922;2022-09-13T01:18:09;101199.63;;;8.28;73.60
74893;BME280;63446;56.272;43.922;2022-09-13T01:20:45;101206.13;;;8.26;73.67
74893;BME280;63446;56.272;43.922;2022-09-13T01:23:37;101203.75;;;8.24;73.63
74893;BME280;63446;56.272;43.922;2022-09-13T01:40:20;101194.28;;;8.12;73.97
74893;BME280;63446;56.272;43.922;2022-09-13T01:45:53;101189.47;;;8.08;73.92
74893;BME280;63446;56.272;43.922;2022-09-13T01:49:00;101185.25;;;8.07;74.02
74893;BME280;63446;56.272;43.922;2022-09-13T01:51:32;101187.03;;;8.07;74.08
74893;BME280;63446;56.272;43.922;2022-09-13T01:54:24;101184.66;;;8.05;74.10
74893;BME280;63446;56.272;43.922;2022-09-13T01:59:47;101184.09;;;8.03;74.17
74893;BME280;63446;56.272;43.922;2022-09-13T02:02:31;101174.81;;;8.01;74.24
74893;BME280;63446;56.272;43.922;2022-09-13T02:05:06;101180.09;;;8.01;74.28
74893;BME280;63446;56.272;43.922;2022-09-13T02:07:41;101174.25;;;7.99;74.32
74893;BME280;63446;56.272;43.922;2022-09-13T02:10:17;101176.31;;;7.97;74.37
74893;BME280;63446;56.272;43.922;2022-09-13T02:12:47;101172.09;;;7.96;74.42
74893;BME280;63446;56.272;43.922;2022-09-13T02:15:22;101172.09;;;7.96;74.42
74893;BME280;63446;56.272;43.922;2022-09-13T02:18:20;101175.53;;;7.96;74.42
74893;BME280;63446;56.272;43.922;2022-09-13T02:20:46;101177.34;;;7.96;74.42
74893;BME280;63446;56.272;43.922;2022-09-13T02:23:40;101174.72;;;7.96;74.36
74893;BME280;63446;56.272;43.922;2022-09-13T02:26:04;101170.81;;;7.98;74.26
74893;BME280;63446;56.272;43.922;2022-09-13T02:28:35;101166.13;;;8.00;74.35
74893;BME280;63446;56.272;43.922;2022-09-13T02:31:03;101170.94;;;8.03;74.28
74893;BME280;63446;56.272;43.922;2022-09-13T02:33:38;101171.75;;;8.04;74.26
74893;BME280;63446;56.272;43.922;2022-09-13T02:36:18;101170.44;;;8.06;74.22
74893;BME280;63446;56.272;43.922;2022-09-13T02:43:54;101169.63;;;8.18;74.11
74893;BME280;63446;56.272;43.922;2022-09-13T02:46:45;101168.94;;;8.22;73.99
74893;BME280;63446;56.272;43.922;2022-09-13T02:52:18;101166.97;;;8.41;73.68
74893;BME280;63446;56.272;43.922;2022-09-13T02:55:00;101171.59;;;8.63;73.24
74893;BME280;63446;56.272;43.922;2022-09-13T02:58:13;101165.03;;;9.44;72.35
74893;BME280;63446;56.272;43.922;2022-09-13T03:00:44;101168.78;;;10.48;70.69
74893;BME280;63446;56.272;43.922;2022-09-13T03:03:13;101172.75;;;11.74;68.54
74893;BME280;63446;56.272;43.922;2022-09-13T03:05:39;101167.34;;;13.05;66.21
74893;BME280;63446;56.272;43.922;2022-09-13T03:08:08;101168.44;;;14.30;63.58
74893;BME280;63446;56.272;43.922;2022-09-13T03:16:42;101168.19;;;17.98;56.36
74893;BME280;63446;56.272;43.922;2022-09-13T03:24:57;101174.38;;;20.44;51.65
74893;BME280;63446;56.272;43.922;2022-09-13T03:27:44;101176.00;;;21.53;49.74
74893;BME280;63446;56.272;43.922;2022-09-13T03:30:16;101173.63;;;22.61;48.34
74893;BME280;63446;56.272;43.922;2022-09-13T03:35:41;101171.22;;;24.49;44.94
74893;BME280;63446;56.272;43.922;2022-09-13T03:38:11;101177.00;;;25.35;43.94
74893;BME280;63446;56.272;43.922;2022-09-13T03:40:46;101171.50;;;26.14;42.12
74893;BME280;63446;56.272;43.922;2022-09-13T03:43:24;101171.13;;;26.93;41.26
74893;BME280;63446;56.272;43.922;2022-09-13T03:46:14;101175.03;;;27.88;39.95
74893;BME280;63446;56.272;43.922;2022-09-13T03:48:42;101164.28;;;28.59;39.28
74893;BME280;63446;56.272;43.922;2022-09-13T03:51:09;101155.22;;;29.26;38.35
74893;BME280;63446;56.272;43.922;2022-09-13T03:53:40;101161.47;;;29.85;37.06
74893;BME280;63446;56.272;43.922;2022-09-13T03:56:18;101161.81;;;30.56;36.18
74893;BME280;63446;56.272;43.922;2022-09-13T03:58:45;101169.31;;;31.20;35.65
74893;BME280;63446;56.272;43.922;2022-09-13T04:01:12;101160.28;;;31.84;35.26
74893;BME280;63446;56.272;43.922;2022-09-13T04:03:38;101162.38;;;32.53;34.03
74893;BME280;63446;56.272;43.922;2022-09-13T04:06:06;101163.97;;;33.10;33.47
74893;BME280;63446;56.272;43.922;2022-09-13T04:08:32;101160.09;;;33.52;33.03
74893;BME280;63446;56.272;43.922;2022-09-13T04:10:58;101164.34;;;33.91;32.84
74893;BME280;63446;56.272;43.922;2022-09-13T04:13:24;101158.00;;;34.29;32.29
74893;BME280;63446;56.272;43.922;2022-09-13T04:15:50;101161.22;;;34.81;31.81
74893;BME280;63446;56.272;43.922;2022-09-13T04:18:16;101164.19;;;35.41;31.34
74893;BME280;63446;56.272;43.922;2022-09-13T04:20:43;101153.72;;;35.95;30.54
74893;BME280;63446;56.272;43.922;2022-09-13T04:23:08;101163.50;;;36.36;30.33
74893;BME280;63446;56.272;43.922;2022-09-13T04:25:37;101164.16;;;36.60;29.71
74893;BME280;63446;56.272;43.922;2022-09-13T04:28:03;101161.91;;;36.55;29.68
74893;BME280;63446;56.272;43.922;2022-09-13T04:30:29;101171.66;;;36.40;29.73
74893;BME280;63446;56.272;43.922;2022-09-13T04:32:55;101170.44;;;36.05;29.71
74893;BME280;63446;56.272;43.922;2022-09-13T04:35:24;101175.28;;;35.57;29.68
74893;BME280;63446;56.272;43.922;2022-09-13T04:37:54;101173.41;;;34.80;30.35
74893;BME280;63446;56.272;43.922;2022-09-13T04:40:20;101162.16;;;33.79;31.06
74893;BME280;63446;56.272;43.922;2022-09-13T04:42:47;101158.94;;;33.01;31.58
74893;BME280;63446;56.272;43.922;2022-09-13T04:45:13;101168.78;;;32.18;32.20
74893;BME280;63446;56.272;43.922;2022-09-13T04:47:38;101162.22;;;31.83;32.34
74893;BME280;63446;56.272;43.922;2022-09-13T04:50:04;101173.22;;;31.51;32.40
74893;BME280;63446;56.272;43.922;2022-09-13T04:52:32;101186.09;;;31.47;32.58
74893;BME280;63446;56.272;43.922;2022-09-13T04:54:58;101181.81;;;31.43;32.19
74893;BME280;63446;56.272;43.922;2022-09-13T04:57:26;101182.56;;;31.18;32.82
74893;BME280;63446;56.272;43.922;2022-09-13T04:59:52;101175.94;;;31.12;32.72
74893;BME280;63446;56.272;43.922;2022-09-13T05:02:18;101182.94;;;31.70;32.51
74893;BME280;63446;56.272;43.922;2022-09-13T05:04:45;101186.66;;;32.37;31.82
74893;BME280;63446;56.272;43.922;2022-09-13T05:07:10;101193.66;;;33.15;31.10
74893;BME280;63446;56.272;43.922;2022-09-13T05:09:36;101200.44;;;33.86;30.62
74893;BME280;63446;56.272;43.922;2022-09-13T05:12:02;101194.28;;;34.43;30.27
74893;BME280;63446;56.272;43.922;2022-09-13T05:14:28;101197.22;;;35.14;29.83
74893;BME280;63446;56.272;43.922;2022-09-13T05:16:54;101194.53;;;35.77;29.30
74893;BME280;63446;56.272;43.922;2022-09-13T05:19:22;101191.97;;;36.10;28.84
74893;BME280;63446;56.272;43.922;2022-09-13T05:21:49;101201.50;;;36.41;28.42
74893;BME280;63446;56.272;43.922;2022-09-13T05:24:16;101201.41;;;36.65;28.40
74893;BME280;63446;56.272;43.922;2022-09-13T05:26:43;101198.72;;;36.61;28.38
74893;BME280;63446;56.272;43.922;2022-09-13T05:29:08;101211.66;;;35.41;28.60
74893;BME280;63446;56.272;43.922;2022-09-13T05:31:39;101204.88;;;33.28;29.96
74893;BME280;63446;56.272;43.922;2022-09-13T05:34:08;101193.47;;;31.00;31.71
74893;BME280;63446;56.272;43.922;2022-09-13T05:36:43;101192.22;;;28.93;33.86
74893;BME280;63446;56.272;43.922;2022-09-13T05:39:14;101192.44;;;27.14;35.45
74893;BME280;63446;56.272;43.922;2022-09-13T05:41:43;101207.97;;;25.69;37.12
74893;BME280;63446;56.272;43.922;2022-09-13T05:44:09;101192.28;;;24.43;38.49
74893;BME280;63446;56.272;43.922;2022-09-13T05:46:35;101205.22;;;23.39;39.63
74893;BME280;63446;56.272;43.922;2022-09-13T05:49:04;101196.28;;;22.39;40.81
74893;BME280;63446;56.272;43.922;2022-09-13T05:51:52;101201.66;;;21.42;42.26
74893;BME280;63446;56.272;43.922;2022-09-13T05:54:57;101198.59;;;20.53;43.80
74893;BME280;63446;56.272;43.922;2022-09-13T05:58:22;101202.66;;;19.76;44.73
74893;BME280;63446;56.272;43.922;2022-09-13T06:01:28;101208.59;;;19.11;45.71
74893;BME280;63446;56.272;43.922;2022-09-13T06:04:49;101191.59;;;18.57;46.61
74893;BME280;63446;56.272;43.922;2022-09-13T06:07:50;101178.78;;;18.17;47.71
74893;BME280;63446;56.272;43.922;2022-09-13T06:10:25;101179.00;;;17.79;48.50
74893;BME280;63446;56.272;43.922;2022-09-13T06:12:51;101169.25;;;17.56;48.75
74893;BME280;63446;56.272;43.922;2022-09-13T06:15:16;101172.31;;;17.36;49.38
74893;BME280;63446;56.272;43.922;2022-09-13T06:17:42;101156.06;;;17.18;49.54
74893;BME280;63446;56.272;43.922;2022-09-13T06:20:08;101162.91;;;17.05;50.10
74893;BME280;63446;56.272;43.922;2022-09-13T06:22:35;101153.28;;;16.91;50.50
74893;BME280;63446;56.272;43.922;2022-09-13T06:25:02;101152.88;;;16.83;50.51
74893;BME280;63446;56.272;43.922;2022-09-13T06:27:28;101153.72;;;16.79;50.40
74893;BME280;63446;56.272;43.922;2022-09-13T06:29:55;101143.69;;;16.71;50.74
74893;BME280;63446;56.272;43.922;2022-09-13T06:32:21;101135.25;;;16.64;51.12
74893;BME280;63446;56.272;43.922;2022-09-13T06:34:47;101153.66;;;16.65;51.36
74893;BME280;63446;56.272;43.922;2022-09-13T06:37:13;101146.00;;;16.58;51.56
74893;BME280;63446;56.272;43.922;2022-09-13T06:39:43;101146.44;;;16.47;51.88
74893;BME280;63446;56.272;43.922;2022-09-13T06:42:10;101156.53;;;16.31;52.08
74893;BME280;63446;56.272;43.922;2022-09-13T06:44:38;101149.53;;;16.16;52.38
74893;BME280;63446;56.272;43.922;2022-09-13T06:47:04;101152.09;;;16.02;52.55
74893;BME280;63446;56.272;43.922;2022-09-13T06:49:30;101155.47;;;15.89;52.84
74893;BME280;63446;56.272;43.922;2022-09-13T06:51:56;101156.59;;;15.83;53.19
74893;BME280;63446;56.272;43.922;2022-09-13T06:54:22;101154.06;;;15.73;53.47
74893;BME280;63446;56.272;43.922;2022-09-13T06:56:48;101147.69;;;15.69;53.47
74893;BME280;63446;56.272;43.922;2022-09-13T06:59:14;101151.94;;;15.70;53.55
74893;BME280;63446;56.272;43.922;2022-09-13T07:01:41;101147.34;;;15.75;53.42
74893;BME280;63446;56.272;43.922;2022-09-13T07:04:14;101148.19;;;15.71;53.54
74893;BME280;63446;56.272;43.922;2022-09-13T07:06:43;101143.63;;;15.76;53.51
74893;BME280;63446;56.272;43.922;2022-09-13T07:09:14;101151.31;;;15.78;53.47
74893;BME280;63446;56.272;43.922;2022-09-13T07:11:43;101140.44;;;15.74;53.81
74893;BME280;63446;56.272;43.922;2022-09-13T07:14:12;101148.13;;;15.76;53.95
74893;BME280;63446;56.272;43.922;2022-09-13T07:16:38;101147.56;;;15.79;53.91
74893;BME280;63446;56.272;43.922;2022-09-13T07:19:13;101143.03;;;15.79;53.93
74893;BME280;63446;56.272;43.922;2022-09-13T07:21:40;101146.00;;;15.78;54.04
74893;BME280;63446;56.272;43.922;2022-09-13T07:24:05;101135.56;;;15.81;53.75
74893;BME280;63446;56.272;43.922;2022-09-13T07:26:32;101141.34;;;15.89;53.73
74893;BME280;63446;56.272;43.922;2022-09-13T07:29:01;101147.13;;;15.96;53.67
74893;BME280;63446;56.272;43.922;2022-09-13T07:31:35;101134.50;;;16.01;53.51
74893;BME280;63446;56.272;43.922;2022-09-13T07:34:04;101131.78;;;16.06;53.57
74893;BME280;63446;56.272;43.922;2022-09-13T07:36:31;101117.59;;;16.11;53.41
74893;BME280;63446;56.272;43.922;2022-09-13T07:39:03;101110.88;;;16.14;53.25
74893;BME280;63446;56.272;43.922;2022-09-13T07:41:36;101113.50;;;16.19;53.08
74893;BME280;63446;56.272;43.922;2022-09-13T07:44:02;101143.28;;;16.26;53.02
74893;BME280;63446;56.272;43.922;2022-09-13T07:46:33;101122.13;;;16.29;53.03
74893;BME280;63446;56.272;43.922;2022-09-13T07:49:02;101124.00;;;16.29;53.11
74893;BME280;63446;56.272;43.922;2022-09-13T07:51:35;101128.78;;;16.32;52.92
74893;BME280;63446;56.272;43.922;2022-09-13T07:54:25;101130.31;;;16.38;52.83
74893;BME280;63446;56.272;43.922;2022-09-13T07:57:23;101123.22;;;16.47;52.82
74893;BME280;63446;56.272;43.922;2022-09-13T08:00:31;101115.44;;;16.51;52.68
74893;BME280;63446;56.272;43.922;2022-09-13T08:02:56;101127.91;;;16.55;52.60
74893;BME280;63446;56.272;43.922;2022-09-13T08:05:23;101141.25;;;16.55;52.62
74893;BME280;63446;56.272;43.922;2022-09-13T08:07:49;101104.91;;;16.59;52.58
74893;BME280;63446;56.272;43.922;2022-09-13T08:10:15;101102.75;;;16.62;52.53
74893;BME280;63446;56.272;43.922;2022-09-13T08:12:41;101119.97;;;16.69;52.62
74893;BME280;63446;56.272;43.922;2022-09-13T08:15:08;101122.56;;;16.74;52.56
74893;BME280;63446;56.272;43.922;2022-09-13T08:17:34;101107.88;;;16.77;52.37
74893;BME280;63446;56.272;43.922;2022-09-13T08:20:00;101101.94;;;16.80;52.28
74893;BME280;63446;56.272;43.922;2022-09-13T08:22:26;101114.69;;;16.83;52.49
74893;BME280;63446;56.272;43.922;2022-09-13T08:24:52;101127.75;;;16.84;52.62
74893;BME280;63446;56.272;43.922;2022-09-13T08:27:18;101111.44;;;16.86;52.35
74893;BME280;63446;56.272;43.922;2022-09-13T08:29:44;101114.06;;;16.91;52.37
74893;BME280;63446;56.272;43.922;2022-09-13T08:32:11;101124.91;;;16.95;52.34
74893;BME280;63446;56.272;43.922;2022-09-13T08:34:36;101111.50;;;17.00;52.29
74893;BME280;63446;56.272;43.922;2022-09-13T08:37:02;101105.38;;;16.99;52.14
74893;BME280;63446;56.272;43.922;2022-09-13T08:39:28;101123.44;;;17.02;52.09
74893;BME280;63446;56.272;43.922;2022-09-13T08:42:02;101098.34;;;17.03;52.14
74893;BME280;63446;56.272;43.922;2022-09-13T08:44:34;101104.38;;;17.09;52.13
74893;BME280;63446;56.272;43.922;2022-09-13T08:48:19;101102.69;;;17.13;51.95
74893;BME280;63446;56.272;43.922;2022-09-13T08:50:47;101105.31;;;17.18;51.83
74893;BME280;63446;56.272;43.922;2022-09-13T08:53:27;101087.41;;;17.19;51.90
74893;BME280;63446;56.272;43.922;2022-09-13T09:06:35;101062.66;;;17.27;51.72
74893;BME280;63446;56.272;43.922;2022-09-13T09:09:05;101063.16;;;17.29;51.58
74893;BME280;63446;56.272;43.922;2022-09-13T09:11:54;101066.03;;;17.32;51.58
74893;BME280;63446;56.272;43.922;2022-09-13T09:14:38;101040.50;;;17.40;51.43
74893;BME280;63446;56.272;43.922;2022-09-13T09:17:13;101050.19;;;17.50;51.35
74893;BME280;63446;56.272;43.922;2022-09-13T09:19:45;101044.47;;;17.56;51.17
74893;BME280;63446;56.272;43.922;2022-09-13T09:22:18;101043.56;;;17.61;50.93
74893;BME280;63446;56.272;43.922;2022-09-13T09:24:50;101027.41;;;17.66;50.90
74893;BME280;63446;56.272;43.922;2022-09-13T09:27:19;101042.84;;;17.69;50.98
74893;BME280;63446;56.272;43.922;2022-09-13T09:29:53;101035.72;;;17.78;50.97
74893;BME280;63446;56.272;43.922;2022-09-13T09:35:11;101019.84;;;17.96;50.50
74893;BME280;63446;56.272;43.922;2022-09-13T09:37:39;101035.00;;;18.00;50.30
74893;BME280;63446;56.272;43.922;2022-09-13T09:40:11;101007.16;;;18.01;50.22
74893;BME280;63446;56.272;43.922;2022-09-13T09:42:48;101016.34;;;18.09;50.09
74893;BME280;63446;56.272;43.922;2022-09-13T09:45:26;101019.00;;;18.09;50.07
74893;BME280;63446;56.272;43.922;2022-09-13T09:47:54;101003.66;;;18.15;50.02
74893;BME280;63446;56.272;43.922;2022-09-13T09:50:25;101017.41;;;18.22;49.80
74893;BME280;63446;56.272;43.922;2022-09-13T09:53:21;101002.78;;;18.28;49.47
74893;BME280;63446;56.272;43.922;2022-09-13T09:56:00;101004.91;;;18.40;49.22
74893;BME280;63446;56.272;43.922;2022-09-13T09:58:44;101001.81;;;18.46;49.35
74893;BME280;63446;56.272;43.922;2022-09-13T10:01:27;101007.16;;;18.46;49.46
74893;BME280;63446;56.272;43.922;2022-09-13T10:06:28;101018.00;;;18.41;49.10
74893;BME280;63446;56.272;43.922;2022-09-13T10:09:01;101001.06;;;18.32;49.04
74893;BME280;63446;56.272;43.922;2022-09-13T10:11:38;101016.03;;;18.33;49.01
74893;BME280;63446;56.272;43.922;2022-09-13T10:14:05;101004.31;;;18.43;48.91
74893;BME280;63446;56.272;43.922;2022-09-13T10:16:30;100988.19;;;18.57;48.68
74893;BME280;63446;56.272;43.922;2022-09-13T10:19:25;100986.72;;;18.73;48.55
74893;BME280;63446;56.272;43.922;2022-09-13T10:22:17;100985.69;;;18.91;48.59
74893;BME280;63446;56.272;43.922;2022-09-13T10:24:45;100988.03;;;18.93;48.38
74893;BME280;63446;56.272;43.922;2022-09-13T10:29:51;100973.66;;;18.80;48.07
74893;BME280;63446;56.272;43.922;2022-09-13T10:32:20;100974.91;;;18.74;48.29
74893;BME280;63446;56.272;43.922;2022-09-13T10:34:48;100967.19;;;18.72;48.49
74893;BME280;63446;56.272;43.922;2022-09-13T10:37:19;100963.81;;;18.67;48.73
74893;BME280;63446;56.272;43.922;2022-09-13T10:39:59;100961.28;;;18.62;48.52
74893;BME280;63446;56.272;43.922;2022-09-13T10:42:27;100957.13;;;18.55;48.47
74893;BME280;63446;56.272;43.922;2022-09-13T10:45:04;100951.50;;;18.57;48.27
74893;BME280;63446;56.272;43.922;2022-09-13T10:47:38;100955.41;;;18.60;48.33
74893;BME280;63446;56.272;43.922;2022-09-13T10:52:49;100955.97;;;18.70;48.34
74893;BME280;63446;56.272;43.922;2022-09-13T10:57:45;100961.28;;;18.62;48.48
74893;BME280;63446;56.272;43.922;2022-09-13T11:00:14;100961.09;;;18.58;48.88
74893;BME280;63446;56.272;43.922;2022-09-13T11:05:56;100950.63;;;18.48;48.74
74893;BME280;63446;56.272;43.922;2022-09-13T11:30:19;100930.00;;;18.71;48.39
74893;BME280;63446;56.272;43.922;2022-09-13T11:33:03;100931.69;;;18.67;48.31
74893;BME280;63446;56.272;43.922;2022-09-13T11:35:56;100939.25;;;18.65;48.75
74893;BME280;63446;56.272;43.922;2022-09-13T11:43:39;100922.69;;;18.63;48.92
74893;BME280;63446;56.272;43.922;2022-09-13T11:49:03;100931.03;;;18.30;48.78
74893;BME280;63446;56.272;43.922;2022-09-13T11:57:14;100927.41;;;18.26;49.28
74893;BME280;63446;56.272;43.922;2022-09-13T12:02:39;100927.97;;;18.14;49.64
74893;BME280;63446;56.272;43.922;2022-09-13T12:05:17;100918.34;;;18.13;49.52
74893;BME280;63446;56.272;43.922;2022-09-13T12:07:50;100935.66;;;18.16;49.77
74893;BME280;63446;56.272;43.922;2022-09-13T12:10:26;100923.41;;;18.15;49.73
74893;BME280;63446;56.272;43.922;2022-09-13T12:12:55;100917.72;;;18.16;49.59
74893;BME280;63446;56.272;43.922;2022-09-13T12:15:39;100918.69;;;18.20;49.55
74893;BME280;63446;56.272;43.922;2022-09-13T12:20:51;100915.59;;;18.27;49.45
74893;BME280;63446;56.272;43.922;2022-09-13T12:23:30;100917.66;;;18.30;49.45
74893;BME280;63446;56.272;43.922;2022-09-13T12:26:08;100927.88;;;18.28;49.53
74893;BME280;63446;56.272;43.922;2022-09-13T12:28:45;100906.47;;;18.28;49.62
74893;BME280;63446;56.272;43.922;2022-09-13T12:31:19;100908.84;;;18.29;49.82
74893;BME280;63446;56.272;43.922;2022-09-13T12:33:47;100903.50;;;18.29;49.88
74893;BME280;63446;56.272;43.922;2022-09-13T12:42:46;100911.47;;;18.21;49.95
74893;BME280;63446;56.272;43.922;2022-09-13T12:50:50;100893.47;;;18.13;50.16
74893;BME280;63446;56.272;43.922;2022-09-13T12:53:41;100911.56;;;18.07;50.22
74893;BME280;63446;56.272;43.922;2022-09-13T12:56:38;100893.72;;;18.02;50.42
74893;BME280;63446;56.272;43.922;2022-09-13T13:01:55;100892.47;;;18.00;50.30
74893;BME280;63446;56.272;43.922;2022-09-13T13:04:33;100873.72;;;17.91;50.72
74893;BME280;63446;56.272;43.922;2022-09-13T13:07:02;100872.72;;;17.87;50.60
74893;BME280;63446;56.272;43.922;2022-09-13T13:09:32;100872.84;;;17.82;50.85
74893;BME280;63446;56.272;43.922;2022-09-13T13:12:01;100874.34;;;17.74;50.83
74893;BME280;63446;56.272;43.922;2022-09-13T13:14:47;100867.69;;;17.72;51.07
74893;BME280;63446;56.272;43.922;2022-09-13T13:17:48;100859.34;;;17.65;51.18
74893;BME280;63446;56.272;43.922;2022-09-13T13:36:30;100859.59;;;17.41;51.91
74893;BME280;63446;56.272;43.922;2022-09-13T13:38:59;100838.56;;;17.25;52.14
74893;BME280;63446;56.272;43.922;2022-09-13T13:41:51;100838.75;;;17.29;52.33
74893;BME280;63446;56.272;43.922;2022-09-13T13:46:49;100831.97;;;17.23;52.37
74893;BME280;63446;56.272;43.922;2022-09-13T13:57:26;100810.50;;;16.92;53.04
74893;BME280;63446;56.272;43.922;2022-09-13T14:00:17;100818.72;;;16.81;53.42
74893;BME280;63446;56.272;43.922;2022-09-13T14:05:32;100819.66;;;16.72;53.44
74893;BME280;63446;56.272;43.922;2022-09-13T14:19:24;100806.16;;;16.41;54.28
74893;BME280;63446;56.272;43.922;2022-09-13T14:22:11;100803.91;;;16.34;54.37
74893;BME280;63446;56.272;43.922;2022-09-13T14:24:46;100795.19;;;16.28;54.65
74893;BME280;63446;56.272;43.922;2022-09-13T14:27:23;100804.66;;;16.21;54.71
74893;BME280;63446;56.272;43.922;2022-09-13T14:29:53;100794.09;;;16.16;54.99
74893;BME280;63446;56.272;43.922;2022-09-13T14:32:23;100789.94;;;16.09;55.03
74893;BME280;63446;56.272;43.922;2022-09-13T14:34:58;100782.03;;;16.04;55.23
74893;BME280;63446;56.272;43.922;2022-09-13T14:37:33;100785.38;;;15.96;55.56
74893;BME280;63446;56.272;43.922;2022-09-13T14:40:16;100781.22;;;15.90;55.70
74893;BME280;63446;56.272;43.922;2022-09-13T14:42:44;100799.19;;;15.84;55.67
74893;BME280;63446;56.272;43.922;2022-09-13T14:45:19;100792.13;;;15.75;56.00
74893;BME280;63446;56.272;43.922;2022-09-13T14:50:54;100787.56;;;15.61;56.33
74893;BME280;63446;56.272;43.922;2022-09-13T14:53:24;100786.63;;;15.52;56.39
74893;BME280;63446;56.272;43.922;2022-09-13T14:56:12;100777.34;;;15.50;56.41
74893;BME280;63446;56.272;43.922;2022-09-13T14:58:53;100771.81;;;15.46;56.68
74893;BME280;63446;56.272;43.922;2022-09-13T15:01:30;100770.09;;;15.36;56.90
74893;BME280;63446;56.272;43.922;2022-09-13T15:03:58;100786.16;;;15.31;56.95
74893;BME280;63446;56.272;43.922;2022-09-13T15:06:27;100775.28;;;15.28;57.19
74893;BME280;63446;56.272;43.922;2022-09-13T15:09:00;100771.72;;;15.19;57.40
74893;BME280;63446;56.272;43.922;2022-09-13T15:11:42;100772.06;;;15.12;57.60
74893;BME280;63446;56.272;43.922;2022-09-13T15:14:32;100782.97;;;15.10;57.53
74893;BME280;63446;56.272;43.922;2022-09-13T15:17:12;100788.47;;;15.00;57.86
74893;BME280;63446;56.272;43.922;2022-09-13T15:22:17;100800.56;;;14.93;57.92
74893;BME280;63446;56.272;43.922;2022-09-13T15:24:47;100794.50;;;14.87;58.17
74893;BME280;63446;56.272;43.922;2022-09-13T15:27:24;100799.88;;;14.82;58.29
74893;BME280;63446;56.272;43.922;2022-09-13T15:30:02;100805.53;;;14.75;58.44
74893;BME280;63446;56.272;43.922;2022-09-13T15:32:42;100801.09;;;14.71;58.54
74893;BME280;63446;56.272;43.922;2022-09-13T15:35:27;100809.63;;;14.68;58.66
74893;BME280;63446;56.272;43.922;2022-09-13T15:40:43;100803.59;;;14.62;58.81
74893;BME280;63446;56.272;43.922;2022-09-13T15:43:09;100815.09;;;14.57;59.20
74893;BME280;63446;56.272;43.922;2022-09-13T15:45:36;100802.34;;;14.54;59.17
74893;BME280;63446;56.272;43.922;2022-09-13T15:48:02;100815.66;;;14.54;59.20
74893;BME280;63446;56.272;43.922;2022-09-13T15:50:30;100816.50;;;14.50;59.31
74893;BME280;63446;56.272;43.922;2022-09-13T15:52:59;100808.84;;;14.43;59.65
74893;BME280;63446;56.272;43.922;2022-09-13T15:55:26;100813.38;;;14.43;59.48
74893;BME280;63446;56.272;43.922;2022-09-13T15:57:53;100801.72;;;14.38;59.67
74893;BME280;63446;56.272;43.922;2022-09-13T16:00:22;100816.09;;;14.37;59.74
74893;BME280;63446;56.272;43.922;2022-09-13T16:02:49;100813.75;;;14.31;59.97
74893;BME280;63446;56.272;43.922;2022-09-13T16:05:15;100814.31;;;14.28;60.12
74893;BME280;63446;56.272;43.922;2022-09-13T16:07:41;100813.00;;;14.25;60.28